createdAt,value
2023-01-02T00:01:00.862Z,73.62
2023-01-02T00:02:05.465Z,73.96
2023-01-02T00:03:10.043Z,73.67
2023-01-02T00:04:12.009Z,73.04
2023-01-02T00:05:19.346Z,72.44
2023-01-02T00:06:21.356Z,71.98
2023-01-02T00:07:25.904Z,71.45
2023-01-02T00:08:27.821Z,70.84
2023-01-02T00:09:32.333Z,70.70
2023-01-02T00:10:34.366Z,71.07
2023-01-02T00:11:39.015Z,70.86
2023-01-02T00:12:41.159Z,70.53
2023-01-02T00:13:45.786Z,68.88
2023-01-02T00:14:48.048Z,68.37
2023-01-02T00:15:52.805Z,68.48
2023-01-02T00:16:54.857Z,68.56
2023-01-02T00:17:59.357Z,68.16
2023-01-02T00:19:01.378Z,68.36
2023-01-02T00:20:06.552Z,68.22
2023-01-02T00:21:11.235Z,67.89
2023-01-02T00:22:15.823Z,67.62
2023-01-02T00:23:17.767Z,68.00
2023-01-02T00:24:22.922Z,68.29
2023-01-02T00:25:24.938Z,68.57
2023-01-02T00:26:29.522Z,69.03
2023-01-02T00:27:31.505Z,69.99
2023-01-02T00:28:36.392Z,69.94
2023-01-02T00:29:38.383Z,69.70
2023-01-02T00:30:42.911Z,68.53
2023-01-02T00:31:44.960Z,69.35
2023-01-02T00:32:49.520Z,69.16
2023-01-02T00:33:54.129Z,68.89
2023-01-02T00:34:56.120Z,68.27
2023-01-02T00:36:00.662Z,68.00
2023-01-02T00:37:05.240Z,67.94
2023-01-02T00:38:10.088Z,68.09
2023-01-02T00:39:12.047Z,68.35
2023-01-02T00:40:16.604Z,68.40
2023-01-02T00:41:19.000Z,68.64
2023-01-02T00:42:23.563Z,68.23
2023-01-02T00:43:25.563Z,67.00
2023-01-02T00:44:30.106Z,66.11
2023-01-02T00:45:32.139Z,66.19
2023-01-02T00:46:36.744Z,65.81
2023-01-02T00:47:38.757Z,64.92
2023-01-02T00:48:43.653Z,64.53
2023-01-02T00:49:45.615Z,64.11
2023-01-02T00:50:50.487Z,64.19
2023-01-02T00:51:52.481Z,64.26
2023-01-02T00:52:59.576Z,64.33
2023-01-02T00:54:01.629Z,64.81
2023-01-02T00:55:06.707Z,65.21
2023-01-02T00:56:08.798Z,65.55
2023-01-02T00:57:13.421Z,65.92
2023-01-02T00:58:18.000Z,65.88
2023-01-02T00:59:20.014Z,65.99
2023-01-02T01:00:24.793Z,66.03
2023-01-02T01:01:29.515Z,65.73
2023-01-02T01:02:31.745Z,65.79
2023-01-02T01:03:36.478Z,66.28
2023-01-02T01:04:38.472Z,65.92
2023-01-02T01:05:43.108Z,65.79
2023-01-02T01:06:45.087Z,65.84
2023-01-02T01:07:49.612Z,64.67
2023-01-02T01:08:54.146Z,64.61
2023-01-02T01:09:58.683Z,65.11
2023-01-02T01:11:05.600Z,65.30
2023-01-02T01:12:10.552Z,65.40
2023-01-02T01:13:12.515Z,65.70
2023-01-02T01:14:17.165Z,66.19
2023-01-02T01:15:19.469Z,66.68
2023-01-02T01:16:24.164Z,67.79
2023-01-02T01:17:26.199Z,69.36
2023-01-02T01:18:30.712Z,71.67
2023-01-02T01:19:36.112Z,73.18
2023-01-02T01:20:38.772Z,74.37
2023-01-02T01:21:43.716Z,75.45
2023-01-02T01:22:48.347Z,75.54
2023-01-02T01:23:54.079Z,77.10
2023-01-02T01:24:58.640Z,77.84
2023-01-02T01:26:04.462Z,78.09
2023-01-02T01:27:09.257Z,79.17
2023-01-02T01:28:11.204Z,79.55
2023-01-02T01:29:15.817Z,81.85
2023-01-02T01:30:18.023Z,81.21
2023-01-02T01:31:23.431Z,81.04
2023-01-02T01:32:25.434Z,80.15
2023-01-02T01:33:29.989Z,76.74
2023-01-02T01:34:34.580Z,76.89
2023-01-02T01:35:36.528Z,76.79
2023-01-02T01:36:41.245Z,76.57
2023-01-02T01:37:43.265Z,77.11
2023-01-02T01:38:48.551Z,75.12
2023-01-02T01:39:56.504Z,74.21
2023-01-02T01:41:02.000Z,74.52
2023-01-02T01:42:04.279Z,73.72
2023-01-02T01:43:15.340Z,73.15
2023-01-02T01:44:41.436Z,73.15
2023-01-02T01:45:46.935Z,73.21
2023-01-02T01:46:49.005Z,73.50
2023-01-02T01:47:57.623Z,72.46
2023-01-02T01:49:04.597Z,71.54
2023-01-02T01:50:12.061Z,70.76
2023-01-02T01:51:14.661Z,70.44
2023-01-02T01:52:24.163Z,69.56
2023-01-02T01:53:26.167Z,69.58
2023-01-02T01:54:36.318Z,69.36
2023-01-02T01:55:47.965Z,69.36
2023-01-02T01:56:52.886Z,69.20
2023-01-02T01:58:02.539Z,69.05
2023-01-02T01:59:07.857Z,70.10
2023-01-02T02:00:11.662Z,68.13
2023-01-02T02:01:20.097Z,67.61
2023-01-02T02:02:27.429Z,67.12
2023-01-02T02:03:34.783Z,67.14
2023-01-02T02:04:37.212Z,66.60
2023-01-02T02:05:43.497Z,67.51
2023-01-02T02:06:45.925Z,67.25
2023-01-02T02:07:59.894Z,66.20
2023-01-02T02:09:09.135Z,66.17
2023-01-02T02:10:12.585Z,65.52
2023-01-02T02:11:20.799Z,65.74
2023-01-02T02:12:27.996Z,65.80
2023-01-02T02:13:34.380Z,65.69
2023-01-02T02:14:36.387Z,66.06
2023-01-02T02:15:48.570Z,66.36
2023-01-02T02:16:56.121Z,66.77
2023-01-02T02:18:12.405Z,67.22
2023-01-02T02:19:49.304Z,67.61
2023-01-02T02:20:57.097Z,68.39
2023-01-02T02:22:19.654Z,68.55
2023-01-02T02:23:56.988Z,70.11
2023-01-02T02:25:31.219Z,73.25
2023-01-02T02:27:11.161Z,75.89
2023-01-02T02:28:38.251Z,79.86
2023-01-02T02:30:03.134Z,81.96
2023-01-02T02:31:11.710Z,84.75
2023-01-02T02:32:24.854Z,86.72
2023-01-02T02:33:44.761Z,89.25
2023-01-02T02:34:57.803Z,91.63
2023-01-02T02:36:07.472Z,93.46
2023-01-02T02:37:22.469Z,94.55
2023-01-02T02:38:40.604Z,96.56
2023-01-02T02:40:02.999Z,98.45
2023-01-02T02:41:12.442Z,100.00
2023-01-02T02:42:27.314Z,100.00
2023-01-02T02:43:42.086Z,100.00
2023-01-02T02:44:55.195Z,100.00
2023-01-02T02:46:09.456Z,100.00
2023-01-02T02:47:20.354Z,100.00
2023-01-02T02:48:30.589Z,100.00
2023-01-02T02:49:45.754Z,100.00
2023-01-02T02:50:56.694Z,100.00
2023-01-02T02:52:07.003Z,100.00
2023-01-02T02:53:14.574Z,100.00
2023-01-02T02:54:24.855Z,100.00
2023-01-02T02:55:30.512Z,100.00
2023-01-02T02:56:35.342Z,100.00
2023-01-02T02:57:39.902Z,100.00
2023-01-02T02:58:46.220Z,100.00
2023-01-02T02:59:48.302Z,100.00
2023-01-02T03:01:04.785Z,100.00
2023-01-02T03:02:06.912Z,100.00
2023-01-02T03:03:19.373Z,100.00
2023-01-02T03:04:23.033Z,100.00
2023-01-02T03:05:36.478Z,100.00
2023-01-02T03:06:50.556Z,100.00
2023-01-02T03:08:01.235Z,100.00
2023-01-02T03:09:18.905Z,100.00
2023-01-02T03:10:29.533Z,100.00
2023-01-02T03:11:39.687Z,100.00
2023-01-02T03:12:53.296Z,100.00
2023-01-02T03:14:02.187Z,100.00
2023-01-02T03:15:17.514Z,100.00
2023-01-02T03:16:30.322Z,100.00
2023-01-02T03:17:44.681Z,100.00
2023-01-02T03:18:56.180Z,100.00
2023-01-02T03:20:00.804Z,100.00
2023-01-02T03:21:10.474Z,100.00
2023-01-02T03:22:16.812Z,100.00
2023-01-02T03:23:26.029Z,100.00
2023-01-02T03:24:29.571Z,100.00
2023-01-02T03:25:37.191Z,100.00
2023-01-02T03:26:42.992Z,100.00
2023-01-02T03:27:50.688Z,100.00
2023-01-02T03:28:57.828Z,100.00
2023-01-02T03:30:05.653Z,100.00
2023-01-02T03:31:09.811Z,100.00
2023-01-02T03:32:24.458Z,100.00
2023-01-02T03:33:30.407Z,100.00
2023-01-02T03:34:37.196Z,100.00
2023-01-02T03:35:44.425Z,100.00
2023-01-02T03:36:54.412Z,99.31
2023-01-02T03:37:58.921Z,98.36
2023-01-02T03:39:09.832Z,93.31
2023-01-02T03:40:20.402Z,94.71
2023-01-02T03:41:27.135Z,90.64
2023-01-02T03:42:35.651Z,89.89
2023-01-02T03:43:40.753Z,89.21
2023-01-02T03:44:50.191Z,89.29
2023-01-02T03:46:02.215Z,89.59
2023-01-02T03:47:16.964Z,89.06
2023-01-02T03:48:29.223Z,88.66
2023-01-02T03:49:37.267Z,89.33
2023-01-02T03:50:47.268Z,90.86
2023-01-02T03:51:51.968Z,93.92
2023-01-02T03:52:54.045Z,95.06
2023-01-02T03:53:59.149Z,96.44
2023-01-02T03:55:02.115Z,97.90
2023-01-02T03:56:19.345Z,98.94
2023-01-02T03:57:30.711Z,99.81
2023-01-02T03:58:47.931Z,100.00
2023-01-02T03:59:57.568Z,100.00
2023-01-02T04:01:07.621Z,100.00
2023-01-02T04:02:14.873Z,100.00
2023-01-02T04:03:23.657Z,100.00
2023-01-02T04:04:40.636Z,100.00
2023-01-02T04:05:48.902Z,100.00
2023-01-02T04:07:01.056Z,100.00
2023-01-02T04:08:08.253Z,100.00
2023-01-02T04:09:16.707Z,100.00
2023-01-02T04:10:19.599Z,100.00
2023-01-02T04:11:25.432Z,100.00
2023-01-02T04:12:29.915Z,100.00
2023-01-02T04:13:41.093Z,100.00
2023-01-02T04:14:47.239Z,100.00
2023-01-02T04:15:53.906Z,100.00
2023-01-02T04:16:58.483Z,100.00
2023-01-02T04:18:07.620Z,100.00
2023-01-02T04:19:14.261Z,100.00
2023-01-02T04:20:26.115Z,100.00
2023-01-02T04:21:31.581Z,100.00
2023-01-02T04:22:42.213Z,97.47
2023-01-02T04:23:48.315Z,100.00
2023-01-02T04:24:58.177Z,85.79
2023-01-02T04:26:06.027Z,80.86
2023-01-02T04:27:15.374Z,79.17
2023-01-02T04:28:25.673Z,79.25
2023-01-02T04:29:28.247Z,79.61
2023-01-02T04:30:37.943Z,78.59
2023-01-02T04:31:48.695Z,78.48
2023-01-02T04:32:51.753Z,77.85
2023-01-02T04:33:59.326Z,77.56
2023-01-02T04:35:06.071Z,76.22
2023-01-02T04:36:15.360Z,76.65
2023-01-02T04:37:31.342Z,75.42
2023-01-02T04:38:35.871Z,75.71
2023-01-02T04:39:38.923Z,76.17
2023-01-02T04:40:44.254Z,75.83
2023-01-02T04:41:46.238Z,74.30
2023-01-02T04:42:50.825Z,74.74
2023-01-02T04:43:53.116Z,74.52
2023-01-02T04:44:57.719Z,74.75
2023-01-02T04:45:59.715Z,75.08
2023-01-02T04:47:04.455Z,75.01
2023-01-02T04:48:06.781Z,74.89
2023-01-02T04:49:12.459Z,74.54
2023-01-02T04:50:14.513Z,74.39
2023-01-02T04:51:21.747Z,74.98
2023-01-02T04:52:23.683Z,74.66
2023-01-02T04:53:28.200Z,74.74
2023-01-02T04:54:30.177Z,75.05
2023-01-02T04:55:34.711Z,74.23
2023-01-02T04:56:36.645Z,73.97
2023-01-02T04:57:41.482Z,73.69
2023-01-02T04:58:44.290Z,73.21
2023-01-02T04:59:48.783Z,72.67
2023-01-02T05:00:50.713Z,72.45
2023-01-02T05:01:55.398Z,72.13
2023-01-02T05:02:57.589Z,71.40
2023-01-02T05:04:02.177Z,71.07
2023-01-02T05:05:05.107Z,71.05
2023-01-02T05:06:10.354Z,71.26
2023-01-02T05:07:14.895Z,71.33
2023-01-02T05:08:19.450Z,71.49
2023-01-02T05:09:21.390Z,71.10
2023-01-02T05:10:25.920Z,70.72
2023-01-02T05:11:28.067Z,70.71
2023-01-02T05:12:35.701Z,70.34
2023-01-02T05:13:37.814Z,70.44
2023-01-02T05:14:42.374Z,70.64
2023-01-02T05:15:44.376Z,70.98
2023-01-02T05:16:48.945Z,70.76
2023-01-02T05:17:50.943Z,71.03
2023-01-02T05:18:55.787Z,71.80
2023-01-02T05:19:57.750Z,72.27
2023-01-02T05:21:06.415Z,72.48
2023-01-02T05:22:26.318Z,72.39
2023-01-02T05:23:46.330Z,72.66
2023-01-02T05:24:48.251Z,73.38
2023-01-02T05:25:52.805Z,73.88
2023-01-02T05:26:55.106Z,73.85
2023-01-02T05:27:59.660Z,73.18
2023-01-02T05:29:02.059Z,73.50
2023-01-02T05:30:07.529Z,73.95
2023-01-02T05:31:10.206Z,73.44
2023-01-02T05:32:14.847Z,73.85
2023-01-02T05:33:16.816Z,74.12
2023-01-02T05:34:21.349Z,74.52
2023-01-02T05:35:28.513Z,74.67
2023-01-02T05:36:36.557Z,74.93
2023-01-02T05:37:38.529Z,74.60
2023-01-02T05:38:45.675Z,74.38
2023-01-02T05:39:47.619Z,74.02
2023-01-02T05:40:52.116Z,73.13
2023-01-02T05:41:54.049Z,73.39
2023-01-02T05:42:58.617Z,72.93
2023-01-02T05:44:00.588Z,72.49
2023-01-02T05:45:05.178Z,72.71
2023-01-02T05:46:08.614Z,72.96
2023-01-02T05:47:16.543Z,72.51
2023-01-02T05:48:18.815Z,72.59
2023-01-02T05:49:23.361Z,72.83
2023-01-02T05:50:25.506Z,72.91
2023-01-02T05:51:30.166Z,72.91
2023-01-02T05:52:32.139Z,72.85
2023-01-02T05:53:36.990Z,73.35
2023-01-02T05:54:41.621Z,73.59
2023-01-02T05:55:46.178Z,73.12
2023-01-02T05:56:48.100Z,73.32
2023-01-02T05:57:59.413Z,73.45
2023-01-02T05:59:01.330Z,74.47
2023-01-02T06:00:06.631Z,74.89
2023-01-02T06:01:10.937Z,73.72
2023-01-02T06:02:15.563Z,74.45
2023-01-02T06:03:17.650Z,75.86
2023-01-02T06:04:22.337Z,75.61
2023-01-02T06:05:24.298Z,75.08
2023-01-02T06:06:32.431Z,75.33
2023-01-02T06:07:34.392Z,76.56
2023-01-02T06:08:39.297Z,76.80
2023-01-02T06:09:43.981Z,76.72
2023-01-02T06:10:52.555Z,76.65
2023-01-02T06:11:57.133Z,77.01
2023-01-02T06:12:59.127Z,75.27
2023-01-02T06:14:03.696Z,73.89
2023-01-02T06:15:06.638Z,72.98
2023-01-02T06:16:12.856Z,72.78
2023-01-02T06:17:14.867Z,72.12
2023-01-02T06:18:19.435Z,72.51
2023-01-02T06:19:21.398Z,71.84
2023-01-02T06:20:25.947Z,71.48
2023-01-02T06:21:27.935Z,70.53
2023-01-02T06:22:33.128Z,69.72
2023-01-02T06:23:37.787Z,68.81
2023-01-02T06:24:39.787Z,68.86
2023-01-02T06:25:46.978Z,69.35
2023-01-02T06:26:51.555Z,69.16
2023-01-02T06:27:53.512Z,68.65
2023-01-02T06:28:59.984Z,68.31
2023-01-02T06:30:02.007Z,68.14
2023-01-02T06:31:09.482Z,69.02
2023-01-02T06:32:11.559Z,69.24
2023-01-02T06:33:16.181Z,68.75
2023-01-02T06:34:18.128Z,68.40
2023-01-02T06:35:22.663Z,68.30
2023-01-02T06:36:25.572Z,67.76
2023-01-02T06:37:30.109Z,67.63
2023-01-02T06:38:32.464Z,67.83
2023-01-02T06:39:37.014Z,67.96
2023-01-02T06:40:38.967Z,68.23
2023-01-02T06:41:46.154Z,66.40
2023-01-02T06:42:48.093Z,65.05
2023-01-02T06:43:53.849Z,63.33
2023-01-02T06:44:55.819Z,63.45
2023-01-02T06:46:01.340Z,63.51
2023-01-02T06:47:03.364Z,62.18
2023-01-02T06:48:08.672Z,61.98
2023-01-02T06:49:10.636Z,60.86
2023-01-02T06:50:15.218Z,60.79
2023-01-02T06:51:21.215Z,61.62
2023-01-02T06:52:23.202Z,62.10
2023-01-02T06:53:27.776Z,62.16
2023-01-02T06:54:32.413Z,62.85
2023-01-02T06:55:34.794Z,63.10
2023-01-02T06:56:39.350Z,63.61
2023-01-02T06:57:43.925Z,63.96
2023-01-02T06:58:48.819Z,63.74
2023-01-02T06:59:50.747Z,64.30
2023-01-02T07:00:55.712Z,64.73
2023-01-02T07:02:00.378Z,64.60
2023-01-02T07:03:02.427Z,64.41
2023-01-02T07:04:07.094Z,64.32
2023-01-02T07:05:10.769Z,64.17
2023-01-02T07:06:17.760Z,64.14
2023-01-02T07:07:22.349Z,64.27
2023-01-02T07:08:24.281Z,64.57
2023-01-02T07:09:29.062Z,64.85
2023-01-02T07:10:31.020Z,63.78
2023-01-02T07:11:35.875Z,64.30
2023-01-02T07:12:38.380Z,62.89
2023-01-02T07:13:46.896Z,64.01
2023-01-02T07:14:51.421Z,64.53
2023-01-02T07:15:53.396Z,64.47
2023-01-02T07:16:57.925Z,63.32
2023-01-02T07:17:59.907Z,63.64
2023-01-02T07:19:04.504Z,64.17
2023-01-02T07:20:07.672Z,64.28
2023-01-02T07:21:13.457Z,64.81
2023-01-02T07:22:17.955Z,65.28
2023-01-02T07:23:19.909Z,65.72
2023-01-02T07:24:24.441Z,65.63
2023-01-02T07:25:26.412Z,66.14
2023-01-02T07:26:30.991Z,65.92
2023-01-02T07:27:33.301Z,66.26
2023-01-02T07:28:38.857Z,66.30
2023-01-02T07:29:43.529Z,66.51
2023-01-02T07:30:48.045Z,67.11
2023-01-02T07:31:52.605Z,67.47
2023-01-02T07:32:57.298Z,65.12
2023-01-02T07:33:59.483Z,65.16
2023-01-02T07:35:04.032Z,65.12
2023-01-02T07:36:08.462Z,65.21
2023-01-02T07:37:13.090Z,65.61
2023-01-02T07:38:15.035Z,65.40
2023-01-02T07:39:19.572Z,65.64
2023-01-02T07:40:21.513Z,65.79
2023-01-02T07:41:27.990Z,66.23
2023-01-02T07:42:29.929Z,66.45
2023-01-02T07:43:34.424Z,66.71
2023-01-02T07:44:38.930Z,67.44
2023-01-02T07:45:49.933Z,67.84
2023-01-02T07:46:55.300Z,68.03
2023-01-02T07:47:58.275Z,68.43
2023-01-02T07:49:02.790Z,68.52
2023-01-02T07:50:05.707Z,69.78
2023-01-02T07:51:10.928Z,69.74
2023-01-02T07:52:12.894Z,70.62
2023-01-02T07:53:17.489Z,71.76
2023-01-02T07:54:22.162Z,71.26
2023-01-02T07:55:24.134Z,71.38
2023-01-02T07:56:29.005Z,72.16
2023-01-02T07:57:31.396Z,74.90
2023-01-02T07:58:36.538Z,74.15
2023-01-02T07:59:41.050Z,73.89
2023-01-02T08:00:48.170Z,73.59
2023-01-02T08:01:52.850Z,73.52
2023-01-02T08:02:57.539Z,73.33
2023-01-02T08:04:02.846Z,73.28
2023-01-02T08:05:05.864Z,71.58
2023-01-02T08:06:12.118Z,71.10
2023-01-02T08:07:14.160Z,71.29
2023-01-02T08:08:19.216Z,71.86
2023-01-02T08:09:23.980Z,71.81
2023-01-02T08:10:28.617Z,71.53
2023-01-02T08:11:30.546Z,71.38
2023-01-02T08:12:35.140Z,71.71
2023-01-02T08:13:37.346Z,71.92
2023-01-02T08:14:41.851Z,72.31
2023-01-02T08:15:46.649Z,72.88
2023-01-02T08:16:51.225Z,73.14
2023-01-02T08:17:55.960Z,73.47
2023-01-02T08:19:00.511Z,72.48
2023-01-02T08:20:07.662Z,71.50
2023-01-02T08:21:13.778Z,71.80
2023-01-02T08:22:15.757Z,71.47
2023-01-02T08:23:20.394Z,71.04
2023-01-02T08:24:24.921Z,70.52
2023-01-02T08:25:26.917Z,69.99
2023-01-02T08:26:31.444Z,69.95
2023-01-02T08:27:33.549Z,70.23
2023-01-02T08:28:39.248Z,69.74
2023-01-02T08:29:43.974Z,69.50
2023-01-02T08:30:51.117Z,70.40
2023-01-02T08:31:55.681Z,70.57
2023-01-02T08:33:01.057Z,69.44
2023-01-02T08:34:03.045Z,69.70
2023-01-02T08:35:09.251Z,69.89
2023-01-02T08:36:15.490Z,69.51
2023-01-02T08:37:20.023Z,69.14
2023-01-02T08:38:24.590Z,70.13
2023-01-02T08:39:30.175Z,69.26
2023-01-02T08:40:34.764Z,68.44
2023-01-02T08:41:41.131Z,67.40
2023-01-02T08:42:45.673Z,66.90
2023-01-02T08:43:50.224Z,66.50
2023-01-02T08:44:54.911Z,69.02
2023-01-02T08:46:04.992Z,68.52
2023-01-02T08:47:09.644Z,68.12
2023-01-02T08:48:20.805Z,66.89
2023-01-02T08:49:26.037Z,66.52
2023-01-02T08:50:30.562Z,66.27
2023-01-02T08:51:35.123Z,67.35
2023-01-02T08:52:39.646Z,66.52
2023-01-02T08:53:41.588Z,66.55
2023-01-02T08:54:46.123Z,65.89
2023-01-02T08:55:50.662Z,66.39
2023-01-02T08:56:55.205Z,66.00
2023-01-02T08:57:59.709Z,66.11
2023-01-02T08:59:06.327Z,65.73
2023-01-02T09:00:10.284Z,65.33
2023-01-02T09:01:17.520Z,64.64
2023-01-02T09:02:22.354Z,64.82
2023-01-02T09:03:24.502Z,64.79
2023-01-02T09:04:29.013Z,64.67
2023-01-02T09:05:31.190Z,64.46
2023-01-02T09:06:39.036Z,65.01
2023-01-02T09:07:43.612Z,65.21
2023-01-02T09:08:48.374Z,65.17
2023-01-02T09:09:53.217Z,65.62
2023-01-02T09:10:55.174Z,65.88
2023-01-02T09:12:00.449Z,65.48
2023-01-02T09:13:05.026Z,65.08
2023-01-02T09:14:07.102Z,64.46
2023-01-02T09:15:12.499Z,64.42
2023-01-02T09:16:19.704Z,64.56
2023-01-02T09:17:24.361Z,64.24
2023-01-02T09:18:29.525Z,64.33
2023-01-02T09:19:34.301Z,63.89
2023-01-02T09:20:42.823Z,63.48
2023-01-02T09:21:47.878Z,63.13
2023-01-02T09:22:49.777Z,63.22
2023-01-02T09:23:54.685Z,63.46
2023-01-02T09:24:59.259Z,63.72
2023-01-02T09:26:02.095Z,63.44
2023-01-02T09:27:06.857Z,62.97
2023-01-02T09:28:11.374Z,62.99
2023-01-02T09:29:17.113Z,63.14
2023-01-02T09:30:22.038Z,62.74
2023-01-02T09:31:29.257Z,62.94
2023-01-02T09:32:33.773Z,63.67
2023-01-02T09:33:38.429Z,63.97
2023-01-02T09:34:43.011Z,64.55
2023-01-02T09:35:44.978Z,63.78
2023-01-02T09:36:50.203Z,63.35
2023-01-02T09:37:54.711Z,62.85
2023-01-02T09:39:01.187Z,62.29
2023-01-02T09:40:05.956Z,62.75
2023-01-02T09:41:25.415Z,62.64
2023-01-02T09:42:30.277Z,61.84
2023-01-02T09:43:40.334Z,61.42
2023-01-02T09:44:48.970Z,62.32
2023-01-02T09:45:54.969Z,62.50
2023-01-02T09:47:05.354Z,62.49
2023-01-02T09:48:17.851Z,64.32
2023-01-02T09:49:25.807Z,63.70
2023-01-02T09:50:30.411Z,63.84
2023-01-02T09:51:37.305Z,64.26
2023-01-02T09:52:45.781Z,64.96
2023-01-02T09:53:47.957Z,64.50
2023-01-02T09:54:53.349Z,65.01
2023-01-02T09:56:05.318Z,64.36
2023-01-02T09:57:27.717Z,66.43
2023-01-02T09:58:41.773Z,66.88
2023-01-02T09:59:54.286Z,67.41
2023-01-02T10:01:00.216Z,68.06
2023-01-02T10:02:25.057Z,65.18
2023-01-02T10:03:39.828Z,67.55
2023-01-02T10:04:59.393Z,67.46
2023-01-02T10:06:18.510Z,66.51
2023-01-02T10:07:32.929Z,65.29
2023-01-02T10:08:47.897Z,65.35
2023-01-02T10:10:00.365Z,64.53
2023-01-02T10:11:19.685Z,64.56
2023-01-02T10:12:32.808Z,62.72
2023-01-02T10:14:17.292Z,63.29
2023-01-02T10:14:57.398Z,63.37
2023-01-02T10:16:16.439Z,64.52
2023-01-02T10:17:24.929Z,61.53
2023-01-02T10:18:33.617Z,62.24
2023-01-02T10:19:45.428Z,63.16
2023-01-02T10:20:57.269Z,61.71
2023-01-02T10:22:00.917Z,61.48
2023-01-02T10:23:09.538Z,62.67
2023-01-02T10:24:17.551Z,61.95
2023-01-02T10:25:25.222Z,61.04
2023-01-02T10:26:35.285Z,61.85
2023-01-02T10:27:44.026Z,61.24
2023-01-02T10:29:32.998Z,61.93
2023-01-02T10:30:45.402Z,60.89
2023-01-02T10:31:55.851Z,59.69
2023-01-02T10:33:07.166Z,60.62
2023-01-02T10:34:17.560Z,60.26
2023-01-02T10:35:38.116Z,59.92
2023-01-02T10:36:44.961Z,59.19
2023-01-02T10:37:49.561Z,58.12
2023-01-02T10:38:54.678Z,58.54
2023-01-02T10:41:05.792Z,57.05
2023-01-02T10:42:14.395Z,56.09
2023-01-02T10:44:37.523Z,54.56
2023-01-02T10:45:42.321Z,54.55
2023-01-02T10:46:47.000Z,53.43
2023-01-02T10:47:51.720Z,53.20
2023-01-02T10:48:59.999Z,52.22
2023-01-02T10:50:06.460Z,51.83
2023-01-02T10:51:18.333Z,51.24
2023-01-02T10:52:27.895Z,51.09
2023-01-02T10:53:33.789Z,50.30
2023-01-02T10:54:59.977Z,53.24
2023-01-02T10:56:05.835Z,50.83
2023-01-02T10:57:13.970Z,50.58
2023-01-02T10:58:24.465Z,49.34
2023-01-02T10:59:31.633Z,48.92
2023-01-02T11:00:39.602Z,49.67
2023-01-02T11:01:54.075Z,50.24
2023-01-02T11:03:00.305Z,50.24
2023-01-02T11:04:24.566Z,49.95
2023-01-02T11:05:29.321Z,48.65
2023-01-02T11:06:39.301Z,50.10
2023-01-02T11:07:52.695Z,50.10
2023-01-02T11:09:02.186Z,50.12
2023-01-02T11:10:07.895Z,50.48
2023-01-02T11:11:17.410Z,50.50
2023-01-02T11:12:27.068Z,49.82
2023-01-02T11:13:53.811Z,50.37
2023-01-02T11:15:15.809Z,53.42
2023-01-02T11:16:22.000Z,51.12
2023-01-02T11:17:28.346Z,50.63
2023-01-02T11:18:32.572Z,50.92
2023-01-02T11:19:46.511Z,50.55
2023-01-02T11:20:50.875Z,51.00
2023-01-02T11:21:56.122Z,50.37
2023-01-02T11:23:03.439Z,50.61
2023-01-02T11:24:11.715Z,49.80
2023-01-02T11:25:24.555Z,48.38
2023-01-02T11:26:27.897Z,48.50
2023-01-02T11:27:34.543Z,47.93
2023-01-02T11:28:43.686Z,47.63
2023-01-02T11:29:48.067Z,47.39
2023-01-02T11:30:54.519Z,47.63
2023-01-02T11:32:02.177Z,48.56
2023-01-02T11:33:20.873Z,49.07
2023-01-02T11:34:27.195Z,48.43
2023-01-02T11:35:37.456Z,48.77
2023-01-02T11:36:46.812Z,46.22
2023-01-02T11:37:52.750Z,47.23
2023-01-02T11:38:58.707Z,46.07
2023-01-02T11:40:03.706Z,46.75
2023-01-02T11:41:09.819Z,46.29
2023-01-02T11:42:35.094Z,46.60
2023-01-02T11:43:49.263Z,47.29
2023-01-02T11:45:00.580Z,46.87
2023-01-02T11:46:10.287Z,46.72
2023-01-02T11:47:17.130Z,47.75
2023-01-02T11:48:22.195Z,46.72
2023-01-02T11:49:29.762Z,46.60
2023-01-02T11:50:39.562Z,47.03
2023-01-02T11:51:45.020Z,46.79
2023-01-02T11:52:54.841Z,46.46
2023-01-02T11:54:03.416Z,48.58
2023-01-02T11:55:16.199Z,45.26
2023-01-02T11:56:27.561Z,47.00
2023-01-02T11:57:37.897Z,46.72
2023-01-02T11:58:49.819Z,45.76
2023-01-02T11:59:54.299Z,46.05
2023-01-02T12:01:06.039Z,46.66
2023-01-02T12:02:17.978Z,47.45
2023-01-02T12:03:25.261Z,46.39
2023-01-02T12:04:31.046Z,47.61
2023-01-02T12:05:47.782Z,47.30
2023-01-02T12:07:09.861Z,49.20
2023-01-02T12:08:26.201Z,47.63
2023-01-02T12:09:38.284Z,48.09
2023-01-02T12:10:53.925Z,46.61
2023-01-02T12:12:11.839Z,46.65
2023-01-02T12:13:45.581Z,48.04
2023-01-02T12:15:07.874Z,45.27
2023-01-02T12:16:25.369Z,45.55
2023-01-02T12:17:37.120Z,47.10
2023-01-02T12:18:56.820Z,45.46
2023-01-02T12:20:17.663Z,45.40
2023-01-02T12:21:26.985Z,47.06
2023-01-02T12:22:52.836Z,46.64
2023-01-02T12:24:31.976Z,48.72
2023-01-02T12:25:56.137Z,48.31
2023-01-02T12:27:07.740Z,47.67
2023-01-02T12:28:21.065Z,48.82
2023-01-02T12:30:03.622Z,48.98
2023-01-02T12:31:22.117Z,51.04
2023-01-02T12:32:56.718Z,49.60
2023-01-02T12:34:11.251Z,49.00
2023-01-02T12:35:37.212Z,50.06
2023-01-02T12:37:00.951Z,50.21
2023-01-02T12:38:10.274Z,50.15
2023-01-02T12:39:36.771Z,50.08
2023-01-02T12:41:00.645Z,50.99
2023-01-02T12:42:20.932Z,51.31
2023-01-02T12:43:47.978Z,51.57
2023-01-02T12:44:55.443Z,52.82
2023-01-02T12:46:08.413Z,52.52
2023-01-02T12:47:30.890Z,51.60
2023-01-02T12:48:49.003Z,51.45
2023-01-02T12:50:21.610Z,51.90
2023-01-02T12:51:33.773Z,51.46
2023-01-02T12:52:54.990Z,50.81
2023-01-02T12:54:26.424Z,53.08
2023-01-02T12:55:44.604Z,54.40
2023-01-02T12:56:57.519Z,51.87
2023-01-02T12:58:09.599Z,52.91
2023-01-02T12:59:40.499Z,53.34
2023-01-02T13:01:07.085Z,52.31
2023-01-02T13:02:16.078Z,51.42
2023-01-02T13:03:45.495Z,52.70
2023-01-02T13:04:52.888Z,52.23
2023-01-02T13:06:02.619Z,53.11
2023-01-02T13:07:15.353Z,52.65
2023-01-02T13:08:26.340Z,50.36
2023-01-02T13:09:35.251Z,51.77
2023-01-02T13:10:38.620Z,53.29
2023-01-02T13:11:46.639Z,53.18
2023-01-02T13:12:51.588Z,52.69
2023-01-02T13:13:57.899Z,51.65
2023-01-02T13:15:05.600Z,51.45
2023-01-02T13:16:24.768Z,51.75
2023-01-02T13:17:40.537Z,52.78
2023-01-02T13:19:00.562Z,53.36
2023-01-02T13:20:16.126Z,52.75
2023-01-02T13:21:27.379Z,52.88
2023-01-02T13:22:41.971Z,52.59
2023-01-02T13:23:51.955Z,54.35
2023-01-02T13:24:59.309Z,56.37
2023-01-02T13:26:06.678Z,55.22
2023-01-02T13:27:13.961Z,55.94
2023-01-02T13:28:17.618Z,55.21
2023-01-02T13:29:25.597Z,54.93
2023-01-02T13:30:38.431Z,55.86
2023-01-02T13:31:47.359Z,55.85
2023-01-02T13:32:52.710Z,56.23
2023-01-02T13:33:58.001Z,56.42
2023-01-02T13:35:06.418Z,55.50
2023-01-02T13:36:22.355Z,55.12
2023-01-02T13:37:30.318Z,55.08
2023-01-02T13:38:36.425Z,54.74
2023-01-02T13:39:53.188Z,55.91
2023-01-02T13:40:58.174Z,56.09
2023-01-02T13:42:17.280Z,55.74
2023-01-02T13:43:28.594Z,56.05
2023-01-02T13:44:39.091Z,55.65
2023-01-02T13:45:50.072Z,55.67
2023-01-02T13:47:04.438Z,55.31
2023-01-02T13:48:20.749Z,56.18
2023-01-02T13:49:25.363Z,56.40
2023-01-02T13:50:32.679Z,56.05
2023-01-02T13:51:39.221Z,55.57
2023-01-02T13:52:54.052Z,55.35
2023-01-02T13:53:58.877Z,54.60
2023-01-02T13:55:34.007Z,55.28
2023-01-02T13:57:13.652Z,53.88
2023-01-02T13:58:41.663Z,54.39
2023-01-02T13:59:53.900Z,54.33
2023-01-02T14:00:57.282Z,53.14
2023-01-02T14:02:20.431Z,54.06
2023-01-02T14:03:40.925Z,54.01
2023-01-02T14:04:45.867Z,55.10
2023-01-02T14:06:01.790Z,53.00
2023-01-02T14:07:42.209Z,53.03
2023-01-02T14:09:11.575Z,53.50
2023-01-02T14:10:41.197Z,53.50
2023-01-02T14:11:57.025Z,53.77
2023-01-02T14:13:07.519Z,54.37
2023-01-02T14:14:18.202Z,53.80
2023-01-02T14:15:24.188Z,53.71
2023-01-02T14:17:02.630Z,54.22
2023-01-02T14:18:06.911Z,53.34
2023-01-02T14:19:26.632Z,54.06
2023-01-02T14:20:31.132Z,54.52
2023-01-02T14:21:38.653Z,54.54
2023-01-02T14:22:48.722Z,54.19
2023-01-02T14:24:17.582Z,54.36
2023-01-02T14:25:18.838Z,54.55
2023-01-02T14:26:25.432Z,53.49
2023-01-02T14:27:33.734Z,54.18
2023-01-02T14:28:42.158Z,54.44
2023-01-02T14:29:53.463Z,55.81
2023-01-02T14:30:59.125Z,55.39
2023-01-02T14:32:07.820Z,54.80
2023-01-02T14:33:18.889Z,55.78
2023-01-02T14:34:25.858Z,55.75
2023-01-02T14:35:36.095Z,55.49
2023-01-02T14:36:43.569Z,56.10
2023-01-02T14:37:50.583Z,56.07